Time;durP1;ratioP1;P1;durP2;ratioP2;P2;SDS_P1;SDS_P2;PMS_P1;PMS_P2;Temp;Humidity;BMP_temperature;BMP_pressure;BME280_temperature;BME280_humidity;BME280_pressure;Samples;Min_cycle;Max_cycle;Signal;HPM_P1;HPM_P2
2022/07/05 00:01:44;;;;;;;6.00;2.60;;;19.10;99.90;;;;;;6090979;23;20438;-77
2022/07/05 00:04:11;;;;;;;3.17;2.60;;;19.10;99.90;;;;;;6091569;23;20448;-77
2022/07/05 00:07:17;;;;;;;3.43;2.90;;;19.20;99.90;;;;;;6091622;23;20979;-77
2022/07/05 00:09:27;;;;;;;3.27;2.90;;;19.20;99.90;;;;;;6081116;23;20462;-77
2022/07/05 00:11:54;;;;;;;3.03;2.70;;;19.20;99.90;;;;;;6092137;23;20525;-77
2022/07/05 00:14:21;;;;;;;2.70;2.50;;;19.20;99.90;;;;;;6091009;23;20521;-77
2022/07/05 00:16:49;;;;;;;3.60;2.50;;;19.20;99.90;;;;;;6091815;23;20431;-77
2022/07/05 00:19:16;;;;;;;2.90;2.70;;;19.20;99.90;;;;;;6091276;23;20454;-77
2022/07/05 00:21:44;;;;;;;2.60;2.40;;;19.20;99.90;;;;;;6089168;23;20446;-77
2022/07/05 00:24:12;;;;;;;3.30;3.07;;;19.10;99.90;;;;;;6091021;23;20492;-77
2022/07/05 00:26:39;;;;;;;2.70;2.50;;;19.00;99.90;;;;;;6091546;23;20552;-77
2022/07/05 00:29:06;;;;;;;5.03;3.37;;;19.00;99.90;;;;;;6091031;23;20470;-77
2022/07/05 00:31:33;;;;;;;2.90;2.60;;;18.90;99.90;;;;;;6090848;23;20933;-76
2022/07/05 00:34:00;;;;;;;2.97;2.60;;;18.80;99.90;;;;;;6091368;23;20438;-76
2022/07/05 00:36:27;;;;;;;2.80;2.60;;;18.80;99.90;;;;;;6091331;23;20892;-76
2022/07/05 00:38:55;;;;;;;2.80;2.60;;;18.80;99.90;;;;;;6080501;23;20484;-76
2022/07/05 00:41:22;;;;;;;3.33;3.03;;;18.80;99.90;;;;;;6091261;23;20439;-77
2022/07/05 00:43:54;;;;;;;3.60;3.40;;;18.80;99.90;;;;;;6091120;23;20533;-76
2022/07/05 00:46:22;;;;;;;3.37;3.13;;;18.80;99.90;;;;;;6089208;23;20577;-76
2022/07/05 00:48:49;;;;;;;3.60;3.33;;;18.70;99.90;;;;;;6092042;23;20533;-77
2022/07/05 00:51:16;;;;;;;5.40;3.10;;;18.60;99.90;;;;;;6091850;23;20529;-76
2022/07/05 00:53:43;;;;;;;3.40;3.00;;;18.60;99.90;;;;;;6097907;23;20430;-76
2022/07/05 00:56:13;;;;;;;3.10;2.80;;;18.60;99.90;;;;;;6092831;23;20453;-76
2022/07/05 00:58:40;;;;;;;3.20;2.70;;;18.60;99.90;;;;;;6098446;23;20454;-75
2022/07/05 01:01:09;;;;;;;3.83;3.17;;;18.60;99.90;;;;;;6104676;23;20435;-75
2022/07/05 01:03:37;;;;;;;2.93;2.70;;;18.50;99.90;;;;;;6092343;23;20517;-76
2022/07/05 01:06:07;;;;;;;4.20;3.00;;;18.40;99.90;;;;;;6092311;23;20484;-76
2022/07/05 01:08:36;;;;;;;3.03;2.70;;;18.40;99.90;;;;;;6094693;23;20460;-76
2022/07/05 01:11:03;;;;;;;3.70;3.40;;;18.40;99.90;;;;;;6098544;23;20447;-76
2022/07/05 01:13:34;;;;;;;3.70;3.40;;;18.40;99.90;;;;;;6099884;23;20475;-76
2022/07/05 01:16:02;;;;;;;3.10;2.90;;;18.40;99.90;;;;;;6102843;23;20514;-76
2022/07/05 01:18:29;;;;;;;3.57;3.27;;;18.40;99.90;;;;;;6091745;23;20557;-77
2022/07/05 01:20:57;;;;;;;3.00;2.70;;;18.40;99.90;;;;;;6092319;23;20456;-77
2022/07/05 01:23:28;;;;;;;3.10;2.80;;;18.40;99.90;;;;;;6090905;23;20986;-76
2022/07/05 01:25:55;;;;;;;3.90;3.60;;;18.40;99.90;;;;;;6091212;23;20557;-77
2022/07/05 01:28:22;;;;;;;3.47;3.17;;;18.40;99.90;;;;;;6091037;23;20547;-77
2022/07/05 01:30:49;;;;;;;3.80;3.00;;;18.40;99.90;;;;;;6091943;23;20464;-76
2022/07/05 01:33:16;;;;;;;3.20;3.00;;;18.40;99.90;;;;;;6091144;23;20782;-77
2022/07/05 01:35:43;;;;;;;4.20;3.00;;;18.50;99.90;;;;;;6091499;23;20434;-77
2022/07/05 01:38:12;;;;;;;3.13;2.93;;;18.50;99.90;;;;;;6091686;23;20473;-77
2022/07/05 01:40:40;;;;;;;3.70;3.40;;;18.40;99.90;;;;;;6090152;23;20446;-77
2022/07/05 01:43:07;;;;;;;3.77;3.43;;;18.40;99.90;;;;;;6090134;23;20447;-77
2022/07/05 01:45:41;;;;;;;3.60;3.30;;;18.40;99.90;;;;;;6091405;23;21043;-77
2022/07/05 01:48:10;;;;;;;3.10;2.90;;;18.40;99.90;;;;;;6080850;23;20517;-77
2022/07/05 01:50:47;;;;;;;3.30;3.00;;;18.40;99.90;;;;;;6091318;23;20430;-77
2022/07/05 01:53:18;;;;;;;3.03;2.77;;;18.40;99.90;;;;;;6079980;23;20967;-77
2022/07/05 01:55:50;;;;;;;3.40;3.10;;;18.40;99.90;;;;;;6091104;23;20422;-77
2022/07/05 01:58:17;;;;;;;3.23;2.93;;;18.40;99.90;;;;;;6091709;23;20463;-77
2022/07/05 02:00:46;;;;;;;2.97;2.77;;;18.40;99.90;;;;;;6091325;23;20521;-77
2022/07/05 02:03:14;;;;;;;3.63;3.17;;;18.40;99.90;;;;;;6090671;23;20431;-77
2022/07/05 02:05:41;;;;;;;3.40;3.20;;;18.40;99.90;;;;;;6090992;23;20466;-77
2022/07/05 02:08:08;;;;;;;3.50;3.20;;;18.40;99.90;;;;;;6090302;23;20478;-77
2022/07/05 02:10:36;;;;;;;7.10;3.60;;;18.30;99.90;;;;;;6091109;23;20951;-77
2022/07/05 02:13:05;;;;;;;3.67;3.40;;;18.20;99.90;;;;;;6090790;23;20466;-76
2022/07/05 02:15:33;;;;;;;3.63;3.33;;;18.20;99.90;;;;;;6091131;23;20832;-77
2022/07/05 02:18:00;;;;;;;3.70;3.40;;;18.10;99.90;;;;;;6091254;23;20454;-77
2022/07/05 02:20:28;;;;;;;3.53;3.23;;;18.00;99.90;;;;;;6090346;23;20460;-77
2022/07/05 02:22:55;;;;;;;3.40;3.10;;;17.90;99.90;;;;;;6090400;23;20456;-77
2022/07/05 02:25:22;;;;;;;3.80;3.60;;;17.80;99.90;;;;;;6085190;23;20446;-77
2022/07/05 02:27:50;;;;;;;4.43;3.70;;;17.80;99.90;;;;;;6090979;23;20473;-77
2022/07/05 02:30:19;;;;;;;3.77;3.47;;;17.70;99.90;;;;;;6091085;23;20516;-77
2022/07/05 02:32:49;;;;;;;3.67;3.37;;;17.70;99.90;;;;;;6090737;23;20431;-77
2022/07/05 02:35:16;;;;;;;3.90;3.50;;;17.60;99.90;;;;;;6090080;23;20439;-77
2022/07/05 02:37:43;;;;;;;3.90;3.70;;;17.50;99.90;;;;;;6089998;23;20523;-77
2022/07/05 02:40:13;;;;;;;4.37;4.07;;;17.40;99.90;;;;;;6090795;23;20438;-77
2022/07/05 02:42:40;;;;;;;4.00;3.70;;;17.20;99.90;;;;;;6090765;23;20493;-77
2022/07/05 02:45:08;;;;;;;5.90;4.10;;;17.10;99.90;;;;;;6090379;23;20474;-77
2022/07/05 02:47:37;;;;;;;5.83;3.67;;;17.10;99.90;;;;;;6090393;23;20466;-77
2022/07/05 02:50:05;;;;;;;4.00;3.70;;;17.10;99.90;;;;;;6074123;23;20883;-76
2022/07/05 02:52:32;;;;;;;4.33;4.03;;;17.00;99.90;;;;;;6089125;23;20484;-76
2022/07/05 02:54:59;;;;;;;4.97;4.07;;;17.00;99.90;;;;;;6082446;23;20798;-77
2022/07/05 02:57:26;;;;;;;4.57;4.17;;;17.00;99.90;;;;;;6090855;23;20450;-77
2022/07/05 02:59:54;;;;;;;4.13;3.83;;;16.90;99.90;;;;;;6089991;23;20434;-77
2022/07/05 03:02:21;;;;;;;4.63;4.17;;;16.80;99.90;;;;;;6088543;23;20435;-77
2022/07/05 03:04:50;;;;;;;5.00;4.60;;;16.80;99.90;;;;;;6091119;23;20452;-76
2022/07/05 03:07:17;;;;;;;5.80;4.87;;;16.70;99.90;;;;;;6092254;23;20465;-77
2022/07/05 03:09:44;;;;;;;5.10;4.70;;;16.60;99.90;;;;;;6091177;23;20498;-77
2022/07/05 03:12:11;;;;;;;4.70;4.40;;;16.50;99.90;;;;;;6091500;23;20434;-77
2022/07/05 03:14:38;;;;;;;5.30;4.90;;;16.50;99.90;;;;;;6092101;23;20435;-77
2022/07/05 03:17:05;;;;;;;4.90;4.60;;;16.40;99.90;;;;;;6080546;23;20449;-77
2022/07/05 03:19:32;;;;;;;5.10;4.70;;;16.30;99.90;;;;;;6091042;23;20462;-77
2022/07/05 03:22:00;;;;;;;4.83;4.40;;;16.30;99.90;;;;;;6091687;23;20449;-77
2022/07/05 03:24:27;;;;;;;5.40;4.90;;;16.20;99.90;;;;;;6092017;23;20437;-77
2022/07/05 03:26:54;;;;;;;5.33;4.90;;;16.10;99.90;;;;;;6091602;23;20435;-77
2022/07/05 03:29:21;;;;;;;5.30;4.90;;;16.00;99.90;;;;;;6091507;23;20968;-77
2022/07/05 03:31:48;;;;;;;5.73;5.13;;;16.00;99.90;;;;;;6091876;23;20430;-76
2022/07/05 03:34:15;;;;;;;5.10;4.80;;;16.00;99.90;;;;;;6090817;23;20445;-76
2022/07/05 03:36:42;;;;;;;5.17;4.40;;;16.00;99.90;;;;;;6091457;23;20474;-75
2022/07/05 03:39:11;;;;;;;5.07;4.67;;;15.90;99.90;;;;;;6091037;23;20465;-75
2022/07/05 03:41:38;;;;;;;4.93;4.20;;;15.90;99.90;;;;;;6091337;23;20438;-75
2022/07/05 03:44:05;;;;;;;4.63;4.23;;;15.90;99.90;;;;;;6091943;23;20446;-75
2022/07/05 03:46:32;;;;;;;4.47;4.13;;;15.90;99.90;;;;;;6091411;23;20433;-75
2022/07/05 03:48:59;;;;;;;4.43;4.03;;;15.90;99.90;;;;;;6091087;23;20496;-75
2022/07/05 03:51:26;;;;;;;4.77;4.30;;;16.00;99.90;;;;;;6090244;23;20446;-76
2022/07/05 03:53:53;;;;;;;4.20;3.90;;;16.00;99.90;;;;;;6091705;23;20505;-76
2022/07/05 03:56:23;;;;;;;3.93;3.63;;;16.10;99.90;;;;;;6091764;23;20444;-76
2022/07/05 03:58:50;;;;;;;4.90;3.80;;;16.20;99.90;;;;;;6091893;23;20551;-76
2022/07/05 04:01:18;;;;;;;3.80;3.50;;;16.30;99.90;;;;;;6090050;23;20449;-75
2022/07/05 04:03:45;;;;;;;4.60;3.53;;;16.30;99.90;;;;;;6091661;23;20525;-76
2022/07/05 04:06:13;;;;;;;4.30;3.90;;;16.40;99.90;;;;;;6091806;23;20433;-75
2022/07/05 04:08:40;;;;;;;4.60;4.20;;;16.50;99.90;;;;;;6091051;23;20509;-76
2022/07/05 04:11:09;;;;;;;4.23;3.83;;;16.50;99.90;;;;;;6091599;23;20447;-76
2022/07/05 04:13:37;;;;;;;4.90;3.90;;;16.50;99.90;;;;;;6091602;23;20454;-75
2022/07/05 04:16:05;;;;;;;3.30;3.00;;;16.60;99.90;;;;;;6081699;23;20441;-75
2022/07/05 04:18:32;;;;;;;3.93;3.63;;;16.70;99.90;;;;;;6085178;23;20987;-75
2022/07/05 04:20:59;;;;;;;3.80;3.50;;;16.80;99.90;;;;;;6090960;23;20976;-75
2022/07/05 04:23:27;;;;;;;3.70;3.40;;;16.90;99.90;;;;;;6087510;23;20438;-75
2022/07/05 04:25:55;;;;;;;3.20;3.00;;;16.90;99.90;;;;;;6090419;23;20434;-74
2022/07/05 04:28:22;;;;;;;3.63;3.33;;;17.00;99.90;;;;;;6089310;23;21101;-74
2022/07/05 04:30:50;;;;;;;4.87;3.63;;;17.10;99.90;;;;;;6091315;23;20949;-74
2022/07/05 04:33:17;;;;;;;3.80;3.50;;;17.10;99.90;;;;;;6087311;23;20533;-82
2022/07/05 04:35:45;;;;;;;3.30;3.10;;;17.10;99.90;;;;;;6090610;23;20810;-81
2022/07/05 04:38:12;;;;;;;4.07;3.10;;;17.10;99.90;;;;;;6088994;23;20462;-84
2022/07/05 04:40:40;;;;;;;3.60;3.30;;;17.10;99.90;;;;;;6090200;23;20450;-83
2022/07/05 04:43:07;;;;;;;3.80;3.20;;;17.20;99.90;;;;;;6083955;23;20446;-84
2022/07/05 04:45:35;;;;;;;2.80;2.60;;;17.20;99.90;;;;;;6089225;23;20438;-84
2022/07/05 04:48:04;;;;;;;3.30;2.60;;;17.20;99.90;;;;;;6091067;23;20470;-84
2022/07/05 04:50:31;;;;;;;2.80;2.47;;;17.20;99.90;;;;;;6089797;23;20466;-74
2022/07/05 04:52:58;;;;;;;3.30;3.10;;;17.20;99.90;;;;;;6090915;23;20442;-75
2022/07/05 04:55:25;;;;;;;2.60;2.40;;;17.20;99.90;;;;;;6076168;23;20445;-76
2022/07/05 04:57:52;;;;;;;2.90;2.70;;;17.30;99.90;;;;;;6080720;23;20476;-76
2022/07/05 05:00:19;;;;;;;3.10;2.90;;;17.30;99.90;;;;;;6086059;23;20445;-76
2022/07/05 05:02:46;;;;;;;4.50;2.80;;;17.30;99.90;;;;;;6083984;23;20812;-89
2022/07/05 05:05:15;;;;;;;3.50;2.90;;;17.40;99.90;;;;;;6091090;23;20427;-76
2022/07/05 05:07:43;;;;;;;4.37;3.20;;;17.50;99.90;;;;;;6086538;23;20465;-76
2022/07/05 05:10:10;;;;;;;2.70;2.50;;;17.60;99.90;;;;;;6085755;23;21085;-77
2022/07/05 05:12:37;;;;;;;2.63;2.40;;;17.70;99.90;;;;;;6089600;23;20434;-77
2022/07/05 05:15:08;;;;;;;3.43;2.70;;;17.80;99.90;;;;;;6090502;23;20459;-76
2022/07/05 05:17:37;;;;;;;3.20;2.63;;;17.90;99.90;;;;;;6082361;23;20484;-77
2022/07/05 05:20:06;;;;;;;4.70;2.97;;;18.00;99.90;;;;;;6092803;23;20492;-77
2022/07/05 05:22:34;;;;;;;3.77;2.50;;;18.10;99.90;;;;;;6065413;23;20549;-77
2022/07/05 05:25:02;;;;;;;3.10;2.23;;;18.20;99.90;;;;;;6063225;23;20435;-77
2022/07/05 05:27:29;;;;;;;3.07;2.30;;;18.30;99.90;;;;;;6079977;23;20462;-76
2022/07/05 05:29:56;;;;;;;3.90;2.90;;;18.40;99.90;;;;;;6084962;23;20434;-76
2022/07/05 05:32:23;;;;;;;3.03;2.83;;;18.40;99.90;;;;;;6069303;23;20455;-77
2022/07/05 05:34:50;;;;;;;3.20;2.90;;;18.50;99.90;;;;;;6080115;23;20540;-77
2022/07/05 05:37:17;;;;;;;3.80;3.00;;;18.50;99.90;;;;;;6086576;23;21000;-77
2022/07/05 05:39:45;;;;;;;2.90;2.70;;;18.60;99.90;;;;;;6074615;23;20443;-77
2022/07/05 05:42:13;;;;;;;2.67;2.47;;;18.50;99.90;;;;;;6083519;23;20481;-77
2022/07/05 05:44:40;;;;;;;3.10;2.80;;;18.60;99.90;;;;;;6086501;23;20435;-77
2022/07/05 05:47:07;;;;;;;2.83;2.60;;;18.60;99.90;;;;;;6078779;23;20477;-76
2022/07/05 05:49:34;;;;;;;3.37;2.80;;;18.50;99.90;;;;;;6084145;23;20477;-77
2022/07/05 05:52:01;;;;;;;2.70;2.50;;;18.50;99.90;;;;;;6067766;23;20455;-77
2022/07/05 05:54:28;;;;;;;3.27;2.90;;;18.40;99.90;;;;;;6081398;23;20453;-76
2022/07/05 05:56:56;;;;;;;3.30;2.47;;;18.40;99.90;;;;;;6083107;23;20462;-76
2022/07/05 05:59:23;;;;;;;3.33;2.60;;;18.50;99.90;;;;;;6084672;23;20450;-76
2022/07/05 06:01:50;;;;;;;3.50;2.70;;;18.50;99.90;;;;;;6096190;23;20445;-76
2022/07/05 06:04:18;;;;;;;2.53;2.30;;;18.60;99.90;;;;;;6092862;23;20442;-76
2022/07/05 06:06:45;;;;;;;2.50;2.30;;;18.70;99.90;;;;;;6084873;23;20440;-76
2022/07/05 06:09:12;;;;;;;3.63;2.00;;;18.90;99.90;;;;;;6088039;23;20466;-76
2022/07/05 06:11:39;;;;;;;3.30;2.60;;;19.00;99.90;;;;;;6086860;23;20798;-76
2022/07/05 06:14:07;;;;;;;2.37;2.03;;;19.00;99.90;;;;;;6090799;23;20462;-76
2022/07/05 06:16:34;;;;;;;2.57;2.37;;;19.00;99.90;;;;;;6088078;23;20441;-76
2022/07/05 06:19:02;;;;;;;2.60;2.37;;;19.20;99.90;;;;;;6087040;23;20498;-77
2022/07/05 06:21:29;;;;;;;3.13;2.50;;;19.30;99.90;;;;;;6080025;23;20461;-79
2022/07/05 06:23:56;;;;;;;2.77;2.17;;;19.50;99.90;;;;;;6084920;23;21224;-75
2022/07/05 06:26:23;;;;;;;2.50;2.30;;;19.50;99.90;;;;;;6094739;23;20936;-76
2022/07/05 06:28:50;;;;;;;5.03;2.23;;;19.60;99.90;;;;;;6087071;23;20592;-76
2022/07/05 06:31:18;;;;;;;2.30;2.10;;;19.80;99.90;;;;;;6082750;23;20503;-76
2022/07/05 06:33:46;;;;;;;3.60;2.20;;;19.90;99.90;;;;;;6084742;23;20446;-77
2022/07/05 06:36:13;;;;;;;1.93;1.73;;;20.10;99.90;;;;;;6086661;23;20464;-76
2022/07/05 06:38:40;;;;;;;2.50;2.13;;;20.20;99.90;;;;;;6084876;23;20558;-76
2022/07/05 06:41:07;;;;;;;3.70;2.17;;;20.40;99.90;;;;;;6085676;23;20430;-76
2022/07/05 06:43:34;;;;;;;4.20;2.00;;;20.50;99.90;;;;;;6091762;23;20427;-76
2022/07/05 06:46:01;;;;;;;1.87;1.77;;;20.60;99.90;;;;;;6086907;23;20447;-76
2022/07/05 06:48:30;;;;;;;2.57;1.70;;;20.70;99.90;;;;;;6089623;23;20493;-75
2022/07/05 06:50:57;;;;;;;1.97;1.60;;;20.90;99.90;;;;;;6086391;23;20468;-76
2022/07/05 06:53:26;;;;;;;1.77;1.40;;;21.10;99.90;;;;;;6118080;23;20845;-76
2022/07/05 06:55:53;;;;;;;4.40;2.30;;;21.20;99.90;;;;;;6120311;23;20456;-76
2022/07/05 06:58:20;;;;;;;3.10;1.67;;;21.40;99.90;;;;;;6117744;23;20996;-76
2022/07/05 07:00:48;;;;;;;3.53;2.00;;;21.50;99.90;;;;;;6117657;23;20506;-76
2022/07/05 07:03:15;;;;;;;3.27;1.63;;;21.60;99.90;;;;;;6119986;23;20915;-76
2022/07/05 07:05:44;;;;;;;4.57;2.00;;;21.70;99.90;;;;;;6119637;23;20437;-76
2022/07/05 07:10:55;;;;;;;2.73;2.30;;;22.00;99.90;;;;;;6118861;23;20444;-76
2022/07/05 07:13:22;;;;;;;2.27;2.07;;;22.10;99.90;;;;;;6120761;23;20513;-75
2022/07/05 07:15:49;;;;;;;2.17;1.67;;;22.10;99.90;;;;;;6117837;23;20433;-76
2022/07/05 07:18:17;;;;;;;1.73;1.47;;;22.30;99.90;;;;;;6112424;23;20465;-77
2022/07/05 07:20:45;;;;;;;1.80;1.47;;;22.40;99.90;;;;;;6117349;23;20919;-76
2022/07/05 07:23:12;;;;;;;2.60;1.90;;;22.50;99.90;;;;;;6114649;23;20484;-76
2022/07/05 07:25:39;;;;;;;2.07;1.70;;;22.50;99.90;;;;;;6120114;23;20422;-77
2022/07/05 07:28:06;;;;;;;2.00;1.37;;;22.60;99.90;;;;;;6116030;23;20507;-77
2022/07/05 07:30:33;;;;;;;3.17;1.63;;;22.70;99.90;;;;;;6115986;23;20447;-76
2022/07/05 07:33:01;;;;;;;3.00;1.50;;;22.90;99.80;;;;;;6114143;23;21111;-76
2022/07/05 07:35:28;;;;;;;1.87;1.40;;;23.00;99.80;;;;;;6093075;23;20966;-77
2022/07/05 07:37:56;;;;;;;2.03;1.47;;;23.20;99.80;;;;;;6115865;23;20453;-76
2022/07/05 07:40:23;;;;;;;2.00;1.30;;;23.40;99.70;;;;;;6118869;23;20440;-77
2022/07/05 07:42:50;;;;;;;3.43;1.53;;;23.70;98.50;;;;;;6105213;23;20543;-76
2022/07/05 07:45:17;;;;;;;2.47;1.40;;;24.00;97.80;;;;;;6114334;23;20758;-77
2022/07/05 07:47:44;;;;;;;2.27;1.33;;;24.50;97.20;;;;;;6116014;23;20458;-77
2022/07/05 07:50:11;;;;;;;1.60;1.40;;;25.10;95.40;;;;;;6118573;23;21001;-77
2022/07/05 07:52:40;;;;;;;2.23;1.70;;;25.90;93.50;;;;;;6120724;23;20446;-77
2022/07/05 07:55:09;;;;;;;1.87;1.40;;;26.60;91.60;;;;;;6124537;23;20880;-76
2022/07/05 07:57:36;;;;;;;1.20;1.10;;;27.10;90.20;;;;;;6116291;23;20499;-77
2022/07/05 08:00:05;;;;;;;2.03;1.33;;;27.80;87.40;;;;;;6116692;23;20524;-77
2022/07/05 08:02:32;;;;;;;1.47;1.23;;;28.40;84.00;;;;;;6111262;23;20441;-77
2022/07/05 08:04:59;;;;;;;1.47;1.13;;;29.00;81.60;;;;;;6113408;23;20435;-77
2022/07/05 08:07:26;;;;;;;2.90;1.40;;;29.60;79.60;;;;;;6116519;23;20461;-77
2022/07/05 08:09:53;;;;;;;1.30;1.10;;;30.10;77.60;;;;;;6114841;23;20474;-78
2022/07/05 08:12:22;;;;;;;1.77;1.30;;;30.50;74.70;;;;;;6115351;23;20853;-77
2022/07/05 08:14:49;;;;;;;3.13;1.33;;;30.80;73.30;;;;;;6119776;23;20467;-78
2022/07/05 08:17:20;;;;;;;1.37;1.20;;;31.20;70.30;;;;;;6135160;23;20449;-78
2022/07/05 08:22:32;;;;;;;3.40;1.50;;;31.50;64.70;;;;;;6118511;23;20431;-78
2022/07/05 08:25:00;;;;;;;1.53;1.33;;;31.50;66.00;;;;;;6120637;23;20425;-78
2022/07/05 08:27:28;;;;;;;1.90;1.53;;;31.40;63.90;;;;;;6115165;23;20523;-77
2022/07/05 08:29:55;;;;;;;3.20;1.47;;;31.20;65.40;;;;;;6125943;23;20464;-78
2022/07/05 08:32:22;;;;;;;1.93;1.40;;;31.40;64.30;;;;;;6116692;23;20443;-77
2022/07/05 08:34:49;;;;;;;1.47;1.30;;;31.30;63.80;;;;;;6119175;23;20546;-77
2022/07/05 08:37:16;;;;;;;1.90;1.60;;;31.20;63.40;;;;;;6120292;23;20463;-77
2022/07/05 08:39:44;;;;;;;7.50;1.70;;;30.90;64.10;;;;;;6101431;23;20455;-77
2022/07/05 08:42:12;;;;;;;4.40;1.50;;;31.10;64.30;;;;;;6114564;23;20437;-78
2022/07/05 08:44:44;;;;;;;2.57;1.83;;;31.50;64.50;;;;;;6115087;23;20457;-78
2022/07/05 08:47:12;;;;;;;2.70;1.17;;;32.00;63.80;;;;;;6122140;23;20510;-78
2022/07/05 08:49:41;;;;;;;2.10;1.50;;;32.20;62.20;;;;;;6121856;23;20476;-77
2022/07/05 08:52:12;;;;;;;2.00;1.50;;;32.30;59.10;;;;;;6119416;23;20934;-77
2022/07/05 08:54:40;;;;;;;2.90;1.47;;;32.20;60.00;;;;;;6120241;23;20444;-78
2022/07/05 08:57:07;;;;;;;1.80;1.20;;;32.20;59.20;;;;;;6115879;23;20550;-78
2022/07/05 08:59:34;;;;;;;2.53;1.77;;;32.40;59.20;;;;;;6116900;23;20924;-78
2022/07/05 09:02:03;;;;;;;1.53;1.10;;;32.70;59.10;;;;;;6120625;23;20827;-78
2022/07/05 09:04:34;;;;;;;1.30;1.13;;;32.70;59.20;;;;;;6114408;23;20444;-78
2022/07/05 09:07:07;;;;;;;1.47;1.30;;;33.10;58.50;;;;;;6118651;23;20969;-78
2022/07/05 09:09:36;;;;;;;4.00;1.73;;;33.50;57.70;;;;;;6114913;23;20455;-78
2022/07/05 09:12:04;;;;;;;1.43;1.00;;;33.20;57.70;;;;;;6116840;23;20838;-79
2022/07/05 09:14:31;;;;;;;1.47;1.30;;;33.20;58.40;;;;;;6098281;23;21093;-78
2022/07/05 09:16:59;;;;;;;3.60;1.47;;;33.80;58.10;;;;;;6119144;23;20485;-78
2022/07/05 09:19:29;;;;;;;1.40;1.30;;;34.10;56.70;;;;;;6129762;23;20500;-78
2022/07/05 09:22:03;;;;;;;1.07;1.07;;;34.10;55.70;;;;;;6110771;23;20853;-78
2022/07/05 09:24:32;;;;;;;2.10;1.43;;;34.50;55.00;;;;;;6122193;23;20443;-78
2022/07/05 09:27:04;;;;;;;1.10;1.00;;;34.40;54.40;;;;;;6113084;23;20456;-78
2022/07/05 09:29:32;;;;;;;1.50;1.30;;;34.50;54.50;;;;;;6116670;23;20466;-77
2022/07/05 09:31:59;;;;;;;1.90;1.50;;;34.50;55.20;;;;;;6114842;23;20448;-78
2022/07/05 09:34:30;;;;;;;1.67;1.40;;;34.40;54.70;;;;;;6117680;23;20788;-78
2022/07/05 09:37:01;;;;;;;2.27;1.20;;;34.80;53.50;;;;;;6118804;23;20456;-78
2022/07/05 09:39:39;;;;;;;1.80;1.27;;;34.80;53.40;;;;;;6114559;23;20445;-78
2022/07/05 09:42:15;;;;;;;1.73;1.33;;;34.80;52.80;;;;;;6110579;23;20840;-78
2022/07/05 09:44:45;;;;;;;1.90;1.23;;;34.70;50.90;;;;;;6112180;23;20437;-79
2022/07/05 09:47:14;;;;;;;2.23;1.10;;;34.70;50.30;;;;;;6114677;23;20471;-78
2022/07/05 09:49:48;;;;;;;1.70;1.20;;;34.90;50.30;;;;;;6112458;23;20459;-78
2022/07/05 09:52:28;;;;;;;1.93;1.23;;;35.10;50.10;;;;;;6117155;23;20868;-78
2022/07/05 09:55:06;;;;;;;1.67;1.20;;;34.80;49.90;;;;;;6116105;23;20493;-78
2022/07/05 09:57:34;;;;;;;1.20;1.10;;;34.70;49.90;;;;;;6114371;23;20457;-78
2022/07/05 10:00:03;;;;;;;1.73;1.10;;;34.80;49.70;;;;;;6117056;23;20462;-78
2022/07/05 10:02:40;;;;;;;1.53;1.23;;;34.80;50.10;;;;;;6112739;23;20447;-78
2022/07/05 10:05:14;;;;;;;2.13;1.20;;;35.00;49.60;;;;;;6111294;23;21012;-78
2022/07/05 10:07:44;;;;;;;2.90;1.20;;;35.30;49.40;;;;;;6116865;23;20457;-78
2022/07/05 10:10:13;;;;;;;2.13;1.27;;;35.50;48.70;;;;;;6111638;23;20454;-78
2022/07/05 10:12:42;;;;;;;2.20;1.00;;;35.60;48.90;;;;;;6115317;23;20436;-78
2022/07/05 10:15:11;;;;;;;1.27;1.17;;;35.90;47.10;;;;;;6118927;23;20508;-78
2022/07/05 10:17:42;;;;;;;2.50;1.40;;;36.00;46.90;;;;;;6117154;23;20510;-78
2022/07/05 10:20:18;;;;;;;1.47;1.17;;;34.80;46.50;;;;;;6118551;23;20964;-78
2022/07/05 10:22:47;;;;;;;1.60;1.40;;;33.60;48.30;;;;;;6114444;23;20795;-79
2022/07/05 10:25:15;;;;;;;1.90;1.60;;;33.00;48.50;;;;;;6111910;23;20440;-78
2022/07/05 10:27:43;;;;;;;1.67;1.53;;;33.10;47.40;;;;;;6113448;23;20461;-78
2022/07/05 10:30:12;;;;;;;2.50;1.13;;;33.50;47.80;;;;;;6102272;23;20489;-78
2022/07/05 10:32:40;;;;;;;2.17;1.40;;;33.60;47.20;;;;;;6101698;23;20830;-77
2022/07/05 10:35:08;;;;;;;2.67;1.70;;;33.10;49.00;;;;;;6102639;23;21156;-78
2022/07/05 10:37:37;;;;;;;3.10;1.70;;;33.00;48.70;;;;;;6106694;23;20471;-78
2022/07/05 10:40:06;;;;;;;1.30;1.20;;;33.40;48.70;;;;;;6103413;23;20441;-78
2022/07/05 10:42:39;;;;;;;2.13;1.23;;;33.80;47.30;;;;;;6100606;23;20530;-78
2022/07/05 10:45:26;;;;;;;2.50;1.30;;;34.40;46.40;;;;;;6106764;23;20437;-78
2022/07/05 10:48:15;;;;;;;1.57;1.33;;;34.70;46.20;;;;;;6104836;23;20871;-78
2022/07/05 10:50:47;;;;;;;1.50;1.20;;;35.00;45.20;;;;;;6090392;23;20473;-78
2022/07/05 10:53:17;;;;;;;1.30;1.00;;;35.10;44.60;;;;;;6112775;23;20461;-78
2022/07/05 10:55:48;;;;;;;1.90;1.10;;;35.20;45.00;;;;;;6096023;23;20458;-78
2022/07/05 10:58:24;;;;;;;1.53;1.10;;;35.80;45.50;;;;;;6113343;23;20451;-78
2022/07/05 11:01:24;;;;;;;1.47;1.17;;;36.20;44.40;;;;;;6118999;23;20496;-77
2022/07/05 11:03:57;;;;;;;1.47;1.20;;;35.40;43.50;;;;;;6116358;23;20441;-77
2022/07/05 11:06:26;;;;;;;3.27;1.03;;;35.10;43.80;;;;;;6116699;23;20545;-78
2022/07/05 11:09:19;;;;;;;1.77;1.10;;;33.50;43.80;;;;;;6119476;23;20449;-78
2022/07/05 11:11:49;;;;;;;3.97;1.20;;;32.60;47.00;;;;;;6102871;23;20467;-78
2022/07/05 11:14:34;;;;;;;2.00;1.10;;;32.90;46.60;;;;;;6116296;23;20527;-77
2022/07/05 11:17:22;;;;;;;2.43;1.13;;;33.00;46.00;;;;;;6109878;23;20462;-77
2022/07/05 11:20:04;;;;;;;2.10;1.10;;;33.10;47.50;;;;;;6113990;23;20460;-78
2022/07/05 11:22:31;;;;;;;1.40;1.13;;;33.20;47.60;;;;;;6102438;23;20554;-77
2022/07/05 11:25:01;;;;;;;1.30;1.07;;;33.10;46.70;;;;;;6113202;23;20473;-78
2022/07/05 11:27:29;;;;;;;1.30;1.17;;;33.10;46.00;;;;;;6113105;23;20519;-78
2022/07/05 11:29:57;;;;;;;1.00;0.90;;;33.20;47.70;;;;;;6118354;23;20580;-78
2022/07/05 11:32:36;;;;;;;1.10;0.97;;;33.00;46.80;;;;;;6094366;23;20471;-77
2022/07/05 11:35:15;;;;;;;1.60;1.10;;;32.70;46.20;;;;;;6096935;23;20437;-77
2022/07/05 11:37:59;;;;;;;1.53;1.00;;;32.60;47.30;;;;;;6118105;23;20970;-78
2022/07/05 11:40:30;;;;;;;2.10;1.00;;;32.90;48.00;;;;;;6114786;23;20438;-78
2022/07/05 11:42:57;;;;;;;1.67;1.07;;;33.30;46.70;;;;;;6110517;23;20515;-78
2022/07/05 11:45:24;;;;;;;2.30;1.10;;;33.10;44.90;;;;;;6124941;23;21017;-77
2022/07/05 11:47:54;;;;;;;2.50;1.53;;;32.70;46.20;;;;;;6119072;23;20453;-77
2022/07/05 11:50:27;;;;;;;1.20;1.10;;;32.10;47.00;;;;;;6121059;23;20477;-78
2022/07/05 11:52:54;;;;;;;1.70;1.40;;;32.10;47.90;;;;;;6118836;23;20447;-78
2022/07/05 11:55:21;;;;;;;1.03;0.93;;;32.20;47.70;;;;;;6117480;23;20476;-78
2022/07/05 11:57:54;;;;;;;2.00;1.33;;;32.40;47.70;;;;;;6117418;23;20581;-78
2022/07/05 12:00:28;;;;;;;2.27;0.90;;;32.40;46.70;;;;;;6122400;23;20444;-77
2022/07/05 12:02:55;;;;;;;1.73;1.20;;;32.40;46.10;;;;;;6116233;23;21243;-77
2022/07/05 12:05:23;;;;;;;1.47;1.17;;;32.60;48.20;;;;;;6119859;23;20432;-78
2022/07/05 12:07:50;;;;;;;1.20;1.10;;;33.20;47.70;;;;;;6114736;23;20463;-78
2022/07/05 12:13:08;;;;;;;1.40;0.90;;;33.80;45.10;;;;;;6116896;23;21010;-78
2022/07/05 12:15:36;;;;;;;1.20;1.10;;;33.80;44.60;;;;;;6115851;23;20482;-78
2022/07/05 12:18:06;;;;;;;1.30;1.00;;;33.50;46.00;;;;;;6115791;23;21018;-78
2022/07/05 12:20:36;;;;;;;1.73;1.10;;;32.90;46.00;;;;;;6105354;23;20453;-78
2022/07/05 12:23:05;;;;;;;1.73;1.00;;;32.60;46.30;;;;;;6107931;23;20441;-78
2022/07/05 12:25:33;;;;;;;2.77;1.20;;;32.60;46.60;;;;;;6111603;23;20439;-83
2022/07/05 12:28:03;;;;;;;1.20;1.10;;;32.70;46.80;;;;;;6112160;23;20830;-79
2022/07/05 12:30:32;;;;;;;5.40;1.60;;;32.50;47.30;;;;;;6111655;23;20468;-78
2022/07/05 12:33:01;;;;;;;2.23;1.30;;;32.70;47.30;;;;;;6108466;23;20441;-78
2022/07/05 12:35:30;;;;;;;1.90;1.47;;;32.80;46.90;;;;;;6111626;23;20459;-79
2022/07/05 12:37:57;;;;;;;1.93;1.30;;;33.10;47.50;;;;;;6114178;23;20437;-78
2022/07/05 16:06:54;;;;;;;2.20;1.60;;;34.10;38.60;;;;;;6155050;22;20578;-79
2022/07/05 16:09:22;;;;;;;1.83;1.47;;;32.60;40.40;;;;;;6121461;23;20438;-79
2022/07/05 16:11:49;;;;;;;2.33;1.47;;;31.70;41.30;;;;;;6114927;23;20436;-78
2022/07/05 16:14:16;;;;;;;2.50;1.30;;;31.10;42.80;;;;;;6119648;23;20743;-78
2022/07/05 16:16:43;;;;;;;2.30;1.50;;;30.70;43.20;;;;;;6123196;23;20473;-79
2022/07/05 16:19:10;;;;;;;1.73;1.40;;;30.40;42.90;;;;;;6121170;23;20433;-78
2022/07/05 16:21:37;;;;;;;1.40;1.30;;;30.00;42.70;;;;;;6118988;23;20437;-78
2022/07/05 16:24:06;;;;;;;1.47;1.37;;;29.60;43.40;;;;;;6119168;23;20989;-79
2022/07/05 16:26:33;;;;;;;2.00;1.30;;;29.20;43.10;;;;;;6126484;23;20486;-77
2022/07/05 16:29:01;;;;;;;1.63;1.50;;;28.80;43.20;;;;;;6128890;23;20452;-78
2022/07/05 16:31:28;;;;;;;1.50;1.40;;;28.50;44.20;;;;;;6123662;23;20525;-79